Time;durP1;ratioP1;P1;durP2;ratioP2;P2;SDS_P1;SDS_P2;PMS_P1;PMS_P2;Temp;Humidity;BMP_temperature;BMP_pressure;BME280_temperature;BME280_humidity;BME280_pressure;Samples;Min_cycle;Max_cycle;Signal;HPM_P1;HPM_P2
2022/01/12 00:00:56;;;;;;;715.95;62.65;;;;;;;;;;5055695;28;20132;-66
2022/01/12 00:03:23;;;;;;;487.83;44.70;;;;;;;;;;5056865;28;20057;-66
2022/01/12 00:05:50;;;;;;;565.50;53.75;;;;;;;;;;5054861;28;20080;-66
2022/01/12 00:08:16;;;;;;;701.55;61.33;;;;;;;;;;5056050;28;20503;-66
2022/01/12 00:10:43;;;;;;;832.35;68.22;;;;;;;;;;5062647;28;20083;-66
2022/01/12 00:13:10;;;;;;;;;;;;;;;;;;5056548;28;20119;-66
2022/01/12 00:15:37;;;;;;;666.10;57.92;;;;;;;;;;5058975;28;20055;-66
2022/01/12 00:18:03;;;;;;;495.90;53.33;;;;;;;;;;5054694;28;20052;-66
2022/01/12 00:20:31;;;;;;;576.97;56.70;;;;;;;;;;5054500;28;20048;-66
2022/01/12 00:22:57;;;;;;;899.15;70.13;;;;;;;;;;5062148;28;20072;-66
2022/01/12 00:25:28;;;;;;;790.70;61.83;;;;;;;;;;5060374;28;20103;-66
2022/01/12 00:33:24;;;;;;;373.02;46.40;;;;;;;;;;5057388;28;20118;-66
2022/01/12 00:35:52;;;;;;;658.88;58.75;;;;;;;;;;5059736;28;20739;-66
2022/01/12 00:38:19;;;;;;;502.90;51.40;;;;;;;;;;5060070;28;20136;-66
2022/01/12 00:40:51;;;;;;;295.83;41.15;;;;;;;;;;5055975;28;20084;-66
2022/01/12 00:43:18;;;;;;;364.38;44.47;;;;;;;;;;5057489;28;20572;-66
2022/01/12 00:45:46;;;;;;;366.98;42.17;;;;;;;;;;5052192;28;20480;-66
2022/01/12 00:48:13;;;;;;;237.45;36.65;;;;;;;;;;5058930;28;20055;-66
2022/01/12 00:50:40;;;;;;;254.98;37.35;;;;;;;;;;5053796;28;20045;-66
2022/01/12 00:53:07;;;;;;;280.73;38.70;;;;;;;;;;5058612;28;20476;-66
2022/01/12 00:55:41;;;;;;;270.58;38.88;;;;;;;;;;5057647;28;20131;-66
2022/01/12 00:58:07;;;;;;;142.48;27.25;;;;;;;;;;5059738;28;20079;-66
2022/01/12 01:00:34;;;;;;;237.82;37.17;;;;;;;;;;5057255;28;20064;-66
2022/01/12 01:03:09;;;;;;;253.77;37.42;;;;;;;;;;5057515;28;20076;-66
2022/01/12 01:05:35;;;;;;;209.02;33.85;;;;;;;;;;5053853;28;20066;-66
2022/01/12 01:08:02;;;;;;;143.90;29.48;;;;;;;;;;5059716;28;20077;-66
2022/01/12 01:13:01;;;;;;;152.45;29.50;;;;;;;;;;5058055;28;20056;-65
2022/01/12 01:26:46;;;;;;;80.78;20.13;;;;;;;;;;4999871;28;20532;-66
2022/01/12 01:29:15;;;;;;;67.05;18.25;;;;;;;;;;5000358;28;20513;-66
2022/01/12 01:31:44;;;;;;;38.20;11.60;;;;;;;;;;5023828;28;20520;-66
2022/01/12 01:34:13;;;;;;;43.42;13.02;;;;;;;;;;5051663;28;20136;-66
2022/01/12 01:36:47;;;;;;;42.45;11.30;;;;;;;;;;5058740;28;20069;-66
2022/01/12 01:39:15;;;;;;;37.42;10.57;;;;;;;;;;5061589;28;20056;-66
2022/01/12 01:41:45;;;;;;;29.35;9.20;;;;;;;;;;5064862;28;20508;-66
2022/01/12 01:54:49;;;;;;;36.42;9.65;;;;;;;;;;5059924;28;20091;-66
2022/01/12 01:57:15;;;;;;;27.08;9.43;;;;;;;;;;5056728;28;20133;-66
2022/01/12 01:59:42;;;;;;;28.75;8.82;;;;;;;;;;5060454;28;20143;-66
2022/01/12 02:02:11;;;;;;;36.47;8.50;;;;;;;;;;5059957;28;20052;-66
2022/01/12 02:04:38;;;;;;;30.00;8.82;;;;;;;;;;5058082;28;20139;-66
2022/01/12 02:07:05;;;;;;;40.13;10.80;;;;;;;;;;5043666;28;20079;-66
2022/01/12 02:09:34;;;;;;;36.60;11.53;;;;;;;;;;5059985;28;20128;-66
2022/01/12 02:12:01;;;;;;;45.63;11.95;;;;;;;;;;5057829;28;20331;-66
2022/01/12 02:14:28;;;;;;;54.17;12.73;;;;;;;;;;5062542;28;20081;-66
2022/01/12 02:17:04;;;;;;;;;;;;;;;;;;5049516;28;20128;-66
2022/01/12 02:20:06;;;;;;;62.38;12.70;;;;;;;;;;5061208;28;20007;-66
2022/01/12 02:36:56;;;;;;;47.90;11.73;;;;;;;;;;5055870;28;20080;-65
2022/01/12 02:42:09;;;;;;;48.58;10.45;;;;;;;;;;5054841;28;20143;-66
2022/01/12 02:55:47;;;;;;;19.33;5.57;;;;;;;;;;5060369;28;20068;-65
2022/01/12 02:58:14;;;;;;;22.60;6.18;;;;;;;;;;5057521;28;20550;-65
2022/01/12 03:03:29;;;;;;;21.15;5.22;;;;;;;;;;5060494;28;20059;-65
2022/01/12 03:06:02;;;;;;;26.52;5.07;;;;;;;;;;5059965;28;20048;-65
2022/01/12 03:08:36;;;;;;;25.75;5.35;;;;;;;;;;5060836;28;20099;-65
2022/01/12 03:11:11;;;;;;;20.20;4.88;;;;;;;;;;5054786;28;20095;-65
2022/01/12 03:13:45;;;;;;;27.92;5.45;;;;;;;;;;5054384;28;20475;-65
2022/01/12 03:16:16;;;;;;;20.90;5.10;;;;;;;;;;5061306;28;20183;-65
2022/01/12 03:18:44;;;;;;;19.30;5.28;;;;;;;;;;5056547;28;20102;-65
2022/01/12 03:21:12;;;;;;;28.42;5.82;;;;;;;;;;5054063;28;20469;-65
2022/01/12 03:23:38;;;;;;;16.60;4.93;;;;;;;;;;5058835;28;20084;-66
2022/01/12 03:26:06;;;;;;;21.63;5.78;;;;;;;;;;5061845;28;20495;-65
2022/01/12 03:28:32;;;;;;;;;;;;;;;;;;5063392;28;20796;-65
2022/01/12 03:31:14;;;;;;;23.88;5.30;;;;;;;;;;5058448;28;19928;-65
2022/01/12 03:38:54;;;;;;;32.95;6.22;;;;;;;;;;5061664;28;20140;-65
2022/01/12 03:41:21;;;;;;;34.33;6.28;;;;;;;;;;5059636;28;20076;-65
2022/01/12 03:43:52;;;;;;;31.27;6.53;;;;;;;;;;5058348;28;20053;-65
2022/01/12 03:46:21;;;;;;;34.25;5.97;;;;;;;;;;5057036;28;20056;-65
2022/01/12 03:48:47;;;;;;;40.10;6.15;;;;;;;;;;5057807;28;20056;-65
2022/01/12 03:51:14;;;;;;;25.98;6.03;;;;;;;;;;5055706;28;20180;-65
2022/01/12 03:53:40;;;;;;;44.70;6.03;;;;;;;;;;5055609;28;20456;-65
2022/01/12 03:56:07;;;;;;;16.02;6.00;;;;;;;;;;5064424;28;20391;-65
2022/01/12 03:58:33;;;;;;;34.05;6.40;;;;;;;;;;5052539;28;20151;-65
2022/01/12 04:01:06;;;;;;;27.95;5.80;;;;;;;;;;5056985;28;20462;-65
2022/01/12 04:03:43;;;;;;;24.30;5.28;;;;;;;;;;5058181;28;20587;-65
2022/01/12 04:08:58;;;;;;;38.63;6.10;;;;;;;;;;5057965;28;20152;-65
2022/01/12 04:11:25;;;;;;;29.70;5.97;;;;;;;;;;5057470;28;20069;-66
2022/01/12 04:13:52;;;;;;;37.67;6.28;;;;;;;;;;5058772;28;20045;-65
2022/01/12 04:16:18;;;;;;;28.50;6.50;;;;;;;;;;5060706;28;20547;-66
2022/01/12 04:18:45;;;;;;;35.53;6.57;;;;;;;;;;5060322;28;20049;-65
2022/01/12 04:21:13;;;;;;;39.42;6.57;;;;;;;;;;5060129;28;20131;-65
2022/01/12 04:23:40;;;;;;;47.25;7.13;;;;;;;;;;5056189;28;20140;-65
2022/01/12 04:26:14;;;;;;;88.82;10.55;;;;;;;;;;5054744;28;20135;-66
2022/01/12 04:28:42;;;;;;;372.65;20.45;;;;;;;;;;5059129;28;20136;-66
2022/01/12 04:31:09;;;;;;;322.27;18.27;;;;;;;;;;5060349;28;20443;-66
2022/01/12 04:33:37;;;;;;;53.78;8.15;;;;;;;;;;5057712;28;20048;-66
2022/01/12 04:36:05;;;;;;;51.72;9.55;;;;;;;;;;5058041;28;20053;-66
2022/01/12 04:38:33;;;;;;;;;;;;;;;;;;5057506;28;20055;-65
2022/01/12 04:41:01;;;;;;;66.15;7.07;;;;;;;;;;5058349;28;19962;-66
2022/01/12 04:43:28;;;;;;;50.78;6.82;;;;;;;;;;5048393;28;20084;-66
2022/01/12 04:50:50;;;;;;;53.03;8.05;;;;;;;;;;5060887;28;20275;-66
2022/01/12 04:53:18;;;;;;;38.60;7.05;;;;;;;;;;5042129;28;20555;-66
2022/01/12 04:55:52;;;;;;;31.60;5.93;;;;;;;;;;5055078;28;20560;-66
2022/01/12 04:58:19;;;;;;;32.90;5.35;;;;;;;;;;5058948;28;20135;-66
2022/01/12 05:00:47;;;;;;;31.98;6.13;;;;;;;;;;5055973;28;20053;-66
2022/01/12 05:13:59;;;;;;;48.95;6.93;;;;;;;;;;5047368;28;20163;-66
2022/01/12 05:16:25;;;;;;;;;;;;;;;;;;5045745;28;20139;-66
2022/01/12 05:18:53;;;;;;;46.80;7.32;;;;;;;;;;5046213;28;19924;-67
2022/01/12 05:21:20;;;;;;;65.22;7.90;;;;;;;;;;5027823;28;20404;-66
2022/01/12 05:23:47;;;;;;;67.07;7.55;;;;;;;;;;5046136;28;20505;-66
2022/01/12 05:26:14;;;;;;;54.90;6.85;;;;;;;;;;5049441;28;20065;-66
2022/01/12 05:28:47;;;;;;;96.43;11.07;;;;;;;;;;5056460;28;20055;-66
2022/01/12 05:31:14;;;;;;;92.80;9.40;;;;;;;;;;5045132;28;22293;-66
2022/01/12 05:33:46;;;;;;;71.20;7.25;;;;;;;;;;5045273;28;20384;-67
2022/01/12 05:36:19;;;;;;;57.22;6.30;;;;;;;;;;5044598;28;20049;-66
2022/01/12 05:38:46;;;;;;;49.00;5.55;;;;;;;;;;5044159;28;20053;-67
2022/01/12 05:41:13;;;;;;;;;;;;;;;;;;5059423;28;20486;-66
2022/01/12 05:43:42;;;;;;;61.90;5.75;;;;;;;;;;5064072;28;19967;-66
2022/01/12 05:46:11;;;;;;;59.47;5.50;;;;;;;;;;5060594;28;20575;-66
2022/01/12 05:51:24;;;;;;;54.58;6.38;;;;;;;;;;5060731;28;20140;-66
2022/01/12 05:53:51;;;;;;;49.40;6.03;;;;;;;;;;5046564;28;20044;-65
2022/01/12 05:56:17;;;;;;;79.75;7.00;;;;;;;;;;5044710;28;20596;-66
2022/01/12 05:58:44;;;;;;;70.88;6.78;;;;;;;;;;5045453;28;20041;-66
2022/01/12 06:01:11;;;;;;;65.38;6.85;;;;;;;;;;5045717;28;20118;-66
2022/01/12 06:03:37;;;;;;;79.70;6.60;;;;;;;;;;5044906;28;20503;-66
2022/01/12 06:06:10;;;;;;;73.82;7.35;;;;;;;;;;5050020;28;20045;-66
2022/01/12 06:08:37;;;;;;;73.82;7.60;;;;;;;;;;5060422;28;20508;-66
2022/01/12 06:11:04;;;;;;;66.93;7.88;;;;;;;;;;5059251;28;20041;-66
2022/01/12 06:13:30;;;;;;;87.05;7.68;;;;;;;;;;5059972;28;20136;-66
2022/01/12 06:15:57;;;;;;;80.00;8.38;;;;;;;;;;5050840;28;20556;-66
2022/01/12 06:18:23;;;;;;;79.30;8.32;;;;;;;;;;5047557;28;20688;-66
2022/01/12 06:20:50;;;;;;;79.30;8.82;;;;;;;;;;5057125;28;20075;-66
2022/01/12 06:23:17;;;;;;;71.88;8.48;;;;;;;;;;5057590;28;20110;-65
2022/01/12 06:25:44;;;;;;;90.05;9.57;;;;;;;;;;5059261;28;20131;-65
2022/01/12 06:28:24;;;;;;;;;;;;;;;;;;5061822;28;20136;-66
2022/01/12 06:33:50;;;;;;;84.43;9.30;;;;;;;;;;5006219;28;20051;-66
2022/01/12 06:36:17;;;;;;;101.95;11.38;;;;;;;;;;5058187;28;20370;-65
2022/01/12 06:38:44;;;;;;;72.93;9.52;;;;;;;;;;5059032;28;20104;-65
2022/01/12 06:41:18;;;;;;;80.57;9.65;;;;;;;;;;5057959;28;20135;-65
2022/01/12 06:43:45;;;;;;;;;;;;;;;;;;5054984;28;20124;-66
2022/01/12 06:46:14;;;;;;;92.80;11.40;;;;;;;;;;5056969;28;19978;-65
2022/01/12 06:48:41;;;;;;;78.95;9.38;;;;;;;;;;5060446;28;20049;-65
2022/01/12 06:51:11;;;;;;;59.85;9.48;;;;;;;;;;5058139;28;20075;-65
2022/01/12 06:53:37;;;;;;;75.20;10.57;;;;;;;;;;5062016;28;20092;-65
2022/01/12 06:56:04;;;;;;;71.68;10.93;;;;;;;;;;5054262;28;20077;-65
2022/01/12 06:58:31;;;;;;;69.80;11.27;;;;;;;;;;5060215;28;20132;-65
2022/01/12 07:00:57;;;;;;;89.32;11.38;;;;;;;;;;5061202;28;20071;-65
2022/01/12 07:03:24;;;;;;;72.72;10.63;;;;;;;;;;5060328;28;20052;-65
2022/01/12 07:05:51;;;;;;;79.13;9.82;;;;;;;;;;5059896;28;20091;-65
2022/01/12 07:08:17;;;;;;;80.47;9.93;;;;;;;;;;5062122;28;20049;-65
2022/01/12 07:10:44;;;;;;;69.60;10.32;;;;;;;;;;5055729;28;20853;-66
2022/01/12 07:13:17;;;;;;;75.97;10.30;;;;;;;;;;5057825;28;20143;-65
2022/01/12 07:15:44;;;;;;;74.18;11.00;;;;;;;;;;5057712;28;20131;-65
2022/01/12 07:18:19;;;;;;;101.10;10.98;;;;;;;;;;5055256;28;20140;-65
2022/01/12 07:20:49;;;;;;;84.65;11.00;;;;;;;;;;5051564;28;20076;-65
2022/01/12 07:23:15;;;;;;;96.65;12.13;;;;;;;;;;5042826;28;20136;-65
2022/01/12 07:25:42;;;;;;;69.45;8.80;;;;;;;;;;5042888;28;20136;-65
2022/01/12 07:28:08;;;;;;;73.75;9.52;;;;;;;;;;5043471;28;20075;-65
2022/01/12 07:30:35;;;;;;;89.93;9.38;;;;;;;;;;5041566;28;20141;-65
2022/01/12 07:33:01;;;;;;;65.38;8.43;;;;;;;;;;5050379;28;20067;-65
2022/01/12 07:35:28;;;;;;;80.88;8.73;;;;;;;;;;5056584;28;20076;-65
2022/01/12 07:37:54;;;;;;;85.95;7.75;;;;;;;;;;5061083;28;20156;-65
2022/01/12 07:40:21;;;;;;;82.45;8.23;;;;;;;;;;5047431;28;20503;-65
2022/01/12 07:42:51;;;;;;;73.75;7.80;;;;;;;;;;5056595;28;20084;-65
2022/01/12 07:45:18;;;;;;;66.75;7.28;;;;;;;;;;5059233;28;20666;-65
2022/01/12 07:47:44;;;;;;;61.20;5.93;;;;;;;;;;5061661;28;20123;-65
2022/01/12 07:50:11;;;;;;;63.10;6.15;;;;;;;;;;5056595;28;20469;-65
2022/01/12 07:52:37;;;;;;;73.25;6.53;;;;;;;;;;5058649;28;20515;-65
2022/01/12 07:55:04;;;;;;;70.03;7.10;;;;;;;;;;5055834;28;20527;-65
2022/01/12 07:57:31;;;;;;;51.35;4.68;;;;;;;;;;5057732;28;20124;-65
2022/01/12 07:59:57;;;;;;;66.83;5.93;;;;;;;;;;5057164;28;20678;-65
2022/01/12 08:02:24;;;;;;;76.25;6.32;;;;;;;;;;5057488;28;20081;-65
2022/01/12 08:04:51;;;;;;;52.40;6.35;;;;;;;;;;5058749;28;20056;-66
2022/01/12 08:07:17;;;;;;;47.73;3.83;;;;;;;;;;5059198;28;20135;-65
2022/01/12 08:09:44;;;;;;;59.35;5.00;;;;;;;;;;5059717;28;20378;-65
2022/01/12 08:12:11;;;;;;;;;;;;;;;;;;5060429;28;20102;-65
2022/01/12 08:14:38;;;;;;;53.65;5.57;;;;;;;;;;5062268;28;19924;-65
2022/01/12 08:17:04;;;;;;;71.60;6.45;;;;;;;;;;5059262;28;20049;-66
2022/01/12 08:19:35;;;;;;;75.27;6.47;;;;;;;;;;5059692;28;20045;-65
2022/01/12 08:22:03;;;;;;;51.63;4.95;;;;;;;;;;5056763;28;20797;-65
2022/01/12 08:24:29;;;;;;;;;;;;;;;;;;5053606;28;20049;-65
2022/01/12 08:27:06;;;;;;;56.47;6.28;;;;;;;;;;5056331;28;19928;-65
2022/01/12 08:29:33;;;;;;;65.40;6.50;;;;;;;;;;5056612;28;20121;-66
2022/01/12 08:32:00;;;;;;;57.17;6.43;;;;;;;;;;5058254;28;20137;-66
2022/01/12 08:34:27;;;;;;;44.20;6.78;;;;;;;;;;5057318;28;20103;-66
2022/01/12 08:36:54;;;;;;;64.97;6.37;;;;;;;;;;5054489;28;20059;-66
2022/01/12 08:39:20;;;;;;;62.30;9.23;;;;;;;;;;5058902;28;20306;-66
2022/01/12 08:41:47;;;;;;;58.67;6.15;;;;;;;;;;5046984;28;20057;-66
2022/01/12 08:44:30;;;;;;;61.05;6.70;;;;;;;;;;5048413;28;20072;-66
2022/01/12 08:46:57;;;;;;;58.97;5.80;;;;;;;;;;5046606;28;20056;-66
2022/01/12 08:49:24;;;;;;;69.20;6.85;;;;;;;;;;5048012;28;20055;-66
2022/01/12 08:51:50;;;;;;;59.55;6.40;;;;;;;;;;5048562;28;20149;-66
2022/01/12 08:54:21;;;;;;;61.25;7.03;;;;;;;;;;5048902;28;21277;-66
2022/01/12 08:56:47;;;;;;;49.28;4.80;;;;;;;;;;5058822;28;20045;-66
2022/01/12 08:59:15;;;;;;;68.00;6.85;;;;;;;;;;5065252;28;20481;-66
2022/01/12 09:01:42;;;;;;;53.30;5.15;;;;;;;;;;5054627;28;20080;-66
2022/01/12 09:04:09;;;;;;;63.40;5.68;;;;;;;;;;5047717;28;20105;-66
2022/01/12 09:06:36;;;;;;;57.30;5.80;;;;;;;;;;5055901;28;20132;-66
2022/01/12 09:09:03;;;;;;;60.50;5.93;;;;;;;;;;5057383;28;20045;-66
2022/01/12 09:11:30;;;;;;;;;;;;;;;;;;5048103;28;20041;-66
2022/01/12 09:13:56;;;;;;;56.17;5.70;;;;;;;;;;5056329;28;19924;-66
2022/01/12 09:16:29;;;;;;;51.90;4.90;;;;;;;;;;5060536;28;20561;-66
2022/01/12 09:18:57;;;;;;;59.92;5.35;;;;;;;;;;5058483;28;20162;-66
2022/01/12 09:21:23;;;;;;;64.55;5.93;;;;;;;;;;5059928;28;20077;-66
2022/01/12 09:23:50;;;;;;;62.17;6.30;;;;;;;;;;5062765;28;20466;-66
2022/01/12 09:26:16;;;;;;;59.78;5.35;;;;;;;;;;5058545;28;20136;-66
2022/01/12 09:28:43;;;;;;;63.05;5.38;;;;;;;;;;5057223;28;20149;-66
2022/01/12 09:31:16;;;;;;;69.05;6.85;;;;;;;;;;5063588;28;20080;-66
2022/01/12 09:33:43;;;;;;;59.40;5.47;;;;;;;;;;5058850;28;20499;-66
2022/01/12 09:36:09;;;;;;;66.75;5.28;;;;;;;;;;5057105;28;20535;-66
2022/01/12 09:38:36;;;;;;;64.43;6.18;;;;;;;;;;5063176;28;20136;-66
2022/01/12 09:41:04;;;;;;;56.83;6.18;;;;;;;;;;5061184;28;20063;-66
2022/01/12 09:43:33;;;;;;;70.15;6.53;;;;;;;;;;5046445;28;20139;-66
2022/01/12 09:46:01;;;;;;;56.17;5.88;;;;;;;;;;5060724;28;20597;-66
2022/01/12 09:48:33;;;;;;;58.88;5.90;;;;;;;;;;5060158;28;20053;-66
2022/01/12 09:51:02;;;;;;;54.47;6.65;;;;;;;;;;5058848;28;20396;-66
2022/01/12 09:53:31;;;;;;;62.83;7.00;;;;;;;;;;5062170;28;20128;-65
2022/01/12 09:55:57;;;;;;;;;;;;;;;;;;5064680;28;20131;-65
2022/01/12 09:58:23;;;;;;;57.17;6.22;;;;;;;;;;5063307;28;19975;-66
2022/01/12 10:00:58;;;;;;;64.22;7.22;;;;;;;;;;5043018;28;20128;-66
2022/01/12 10:03:30;;;;;;;62.22;6.50;;;;;;;;;;5062300;28;20135;-66
2022/01/12 10:05:58;;;;;;;54.53;5.50;;;;;;;;;;5056956;28;20092;-66
2022/01/12 10:08:25;;;;;;;59.80;6.63;;;;;;;;;;5059763;28;20049;-66
2022/01/12 10:11:03;;;;;;;78.35;7.60;;;;;;;;;;5059055;28;20132;-66
2022/01/12 10:13:30;;;;;;;61.42;6.95;;;;;;;;;;5049238;28;20132;-66
2022/01/12 10:15:56;;;;;;;61.45;6.82;;;;;;;;;;5059826;28;20132;-66
2022/01/12 10:18:23;;;;;;;51.05;6.28;;;;;;;;;;5061915;28;20237;-66
2022/01/12 10:20:50;;;;;;;68.28;7.30;;;;;;;;;;5053974;28;20055;-66
2022/01/12 10:23:20;;;;;;;80.13;7.60;;;;;;;;;;5062355;28;20076;-66
2022/01/12 10:25:47;;;;;;;59.97;6.95;;;;;;;;;;5063717;28;20607;-66
2022/01/12 10:28:21;;;;;;;67.30;6.13;;;;;;;;;;5045302;28;20393;-66
2022/01/12 10:30:54;;;;;;;63.92;7.30;;;;;;;;;;5043674;28;20732;-66
2022/01/12 10:33:26;;;;;;;78.85;7.65;;;;;;;;;;5045317;28;20562;-66
2022/01/12 10:35:56;;;;;;;72.80;6.85;;;;;;;;;;5062673;28;20488;-66
2022/01/12 10:38:23;;;;;;;60.25;6.05;;;;;;;;;;5056459;28;20089;-66
2022/01/12 10:40:52;;;;;;;57.85;5.93;;;;;;;;;;5058131;28;20156;-66
2022/01/12 10:43:30;;;;;;;68.28;6.95;;;;;;;;;;5043717;28;20144;-66
2022/01/12 10:45:58;;;;;;;59.90;6.25;;;;;;;;;;5044738;28;20048;-66
2022/01/12 10:48:25;;;;;;;53.75;6.07;;;;;;;;;;5044403;28;20408;-66
2022/01/12 10:50:52;;;;;;;51.72;6.78;;;;;;;;;;5042433;28;20187;-66
2022/01/12 10:53:27;;;;;;;54.78;6.57;;;;;;;;;;5046750;28;20098;-66
2022/01/12 10:56:03;;;;;;;54.65;5.40;;;;;;;;;;5044522;28;20786;-66
2022/01/12 10:58:30;;;;;;;43.03;5.53;;;;;;;;;;5045289;28;20502;-66
2022/01/12 11:00:57;;;;;;;42.95;5.57;;;;;;;;;;5058704;28;20128;-66
2022/01/12 11:03:24;;;;;;;44.35;5.10;;;;;;;;;;5059981;28;20057;-65
2022/01/12 11:05:53;;;;;;;47.30;6.10;;;;;;;;;;5043822;28;20132;-66
2022/01/12 11:08:20;;;;;;;54.22;5.75;;;;;;;;;;5044025;28;20149;-65
2022/01/12 11:10:46;;;;;;;50.17;4.95;;;;;;;;;;5044935;28;20583;-66
2022/01/12 11:13:13;;;;;;;49.93;6.30;;;;;;;;;;5043853;28;20048;-66
2022/01/12 11:15:40;;;;;;;51.80;6.25;;;;;;;;;;5045178;28;20120;-66
2022/01/12 11:18:07;;;;;;;43.17;5.78;;;;;;;;;;5042422;28;20049;-65
2022/01/12 11:20:34;;;;;;;44.45;5.82;;;;;;;;;;5043057;28;20098;-66
2022/01/12 11:23:08;;;;;;;58.28;5.93;;;;;;;;;;5044173;28;20231;-66
2022/01/12 11:25:37;;;;;;;43.92;5.72;;;;;;;;;;5043896;28;20139;-66
2022/01/12 11:28:09;;;;;;;39.00;5.13;;;;;;;;;;5051920;28;20135;-65
2022/01/12 11:30:36;;;;;;;54.42;6.05;;;;;;;;;;5045105;28;20514;-65
2022/01/12 11:33:07;;;;;;;55.13;5.45;;;;;;;;;;5043648;28;20135;-66
2022/01/12 11:35:47;;;;;;;43.40;6.18;;;;;;;;;;5043032;28;20055;-66
2022/01/12 11:38:25;;;;;;;48.25;5.63;;;;;;;;;;5055087;28;20083;-65
2022/01/12 11:40:54;;;;;;;57.83;5.88;;;;;;;;;;5058613;28;20060;-66
2022/01/12 11:43:26;;;;;;;52.38;6.90;;;;;;;;;;5057547;28;20057;-66
2022/01/12 11:46:02;;;;;;;61.25;6.68;;;;;;;;;;5058793;28;20138;-66
2022/01/12 11:48:30;;;;;;;53.05;5.47;;;;;;;;;;5044062;28;20045;-65
2022/01/12 11:50:56;;;;;;;54.60;6.80;;;;;;;;;;5042296;28;20049;-66
2022/01/12 11:53:23;;;;;;;63.10;7.53;;;;;;;;;;5049018;28;20059;-66
2022/01/12 11:55:50;;;;;;;40.73;5.90;;;;;;;;;;5057906;28;20087;-65
2022/01/12 11:58:17;;;;;;;47.03;6.63;;;;;;;;;;5060982;28;20077;-66
2022/01/12 12:00:43;;;;;;;;;;;;;;;;;;5062867;28;20114;-66
2022/01/12 12:03:19;;;;;;;60.70;7.10;;;;;;;;;;5060685;28;19920;-65
2022/01/12 12:05:45;;;;;;;58.03;7.05;;;;;;;;;;5047432;28;20084;-66
2022/01/12 12:08:22;;;;;;;55.20;6.03;;;;;;;;;;5055084;28;20140;-66
2022/01/12 12:10:51;;;;;;;31.98;5.40;;;;;;;;;;5056406;28;20071;-66
2022/01/12 12:13:20;;;;;;;59.05;6.82;;;;;;;;;;5060765;28;20081;-66
2022/01/12 12:15:47;;;;;;;58.10;7.38;;;;;;;;;;5054323;28;20520;-65
2022/01/12 12:18:21;;;;;;;58.40;6.75;;;;;;;;;;5055858;28;20041;-65
2022/01/12 12:20:47;;;;;;;56.88;6.78;;;;;;;;;;5058714;28;20144;-66
2022/01/12 12:23:14;;;;;;;70.00;7.73;;;;;;;;;;5059409;28;20606;-65
2022/01/12 12:25:43;;;;;;;48.83;7.40;;;;;;;;;;5056368;28;20762;-65
2022/01/12 12:28:13;;;;;;;57.28;7.22;;;;;;;;;;5063016;28;20475;-65
2022/01/12 12:30:39;;;;;;;53.63;6.75;;;;;;;;;;5063616;28;20563;-65
2022/01/12 12:33:08;;;;;;;63.65;6.88;;;;;;;;;;5055615;28;20040;-66
2022/01/12 12:35:35;;;;;;;63.75;7.43;;;;;;;;;;5057181;28;20139;-65
2022/01/12 12:38:04;;;;;;;56.50;7.13;;;;;;;;;;5056002;28;20045;-65
2022/01/12 12:40:33;;;;;;;47.75;6.22;;;;;;;;;;5058789;28;20087;-66
2022/01/12 12:43:00;;;;;;;61.10;7.80;;;;;;;;;;5055803;28;20537;-65
2022/01/12 12:45:39;;;;;;;68.88;7.47;;;;;;;;;;5057636;28;20163;-65
2022/01/12 12:48:08;;;;;;;57.22;7.65;;;;;;;;;;5064308;28;20131;-65
2022/01/12 12:50:34;;;;;;;55.88;7.80;;;;;;;;;;5061247;28;20124;-65
2022/01/12 12:53:06;;;;;;;69.13;6.95;;;;;;;;;;5054476;28;20088;-66
2022/01/12 12:55:35;;;;;;;49.53;6.35;;;;;;;;;;5053758;28;20055;-65
2022/01/12 12:58:02;;;;;;;52.70;8.38;;;;;;;;;;5054539;28;20520;-65
2022/01/12 13:00:28;;;;;;;34.97;6.00;;;;;;;;;;5053433;28;20135;-65
2022/01/12 13:02:56;;;;;;;49.03;6.10;;;;;;;;;;5054662;28;20045;-65
2022/01/12 13:05:23;;;;;;;;;;;;;;;;;;5056078;28;20107;-65
2022/01/12 13:07:50;;;;;;;63.85;7.75;;;;;;;;;;5046889;28;19960;-65
2022/01/12 13:10:21;;;;;;;77.50;9.25;;;;;;;;;;5042547;28;20056;-65
2022/01/12 13:12:59;;;;;;;60.58;8.38;;;;;;;;;;5042666;28;20203;-65
2022/01/12 13:15:37;;;;;;;59.83;6.90;;;;;;;;;;5042401;28;20555;-65
2022/01/12 13:18:15;;;;;;;54.20;7.80;;;;;;;;;;5042814;28;20049;-65
2022/01/12 13:23:31;;;;;;;66.43;7.35;;;;;;;;;;5058913;28;20110;-66
2022/01/12 13:26:05;;;;;;;53.17;6.20;;;;;;;;;;5058663;28;20055;-65
2022/01/12 13:28:33;;;;;;;54.58;6.78;;;;;;;;;;5058296;28;20175;-65
2022/01/12 13:30:59;;;;;;;;;;;;;;;;;;5053020;28;20128;-65
2022/01/12 13:33:39;;;;;;;56.42;6.53;;;;;;;;;;5061040;28;20007;-65
2022/01/12 13:36:14;;;;;;;70.40;6.80;;;;;;;;;;5059245;28;20123;-65
2022/01/12 13:38:41;;;;;;;53.28;6.95;;;;;;;;;;5060586;28;20055;-65
2022/01/12 13:41:09;;;;;;;63.38;6.40;;;;;;;;;;5059768;28;20071;-65
2022/01/12 13:43:36;;;;;;;75.47;7.32;;;;;;;;;;5059362;28;20183;-66
2022/01/12 13:46:11;;;;;;;66.68;8.30;;;;;;;;;;5053636;28;20049;-65
2022/01/12 13:49:07;;;;;;;63.45;7.25;;;;;;;;;;5045465;28;20431;-66
2022/01/12 13:51:38;;;;;;;63.63;7.93;;;;;;;;;;5045965;28;20091;-65
2022/01/12 13:54:13;;;;;;;66.53;7.70;;;;;;;;;;5046217;28;20144;-65
2022/01/12 13:56:39;;;;;;;69.40;8.45;;;;;;;;;;5047995;28;20127;-65
2022/01/12 13:59:06;;;;;;;71.60;7.70;;;;;;;;;;5044694;28;20532;-65
2022/01/12 14:01:34;;;;;;;75.40;8.48;;;;;;;;;;5027800;28;20055;-65
2022/01/12 14:04:20;;;;;;;62.55;6.03;;;;;;;;;;5044531;28;20049;-65
2022/01/12 14:06:47;;;;;;;82.03;8.32;;;;;;;;;;5030947;28;20135;-65
2022/01/12 14:09:24;;;;;;;66.22;8.00;;;;;;;;;;5047414;28;20197;-66
2022/01/12 14:11:51;;;;;;;62.40;7.32;;;;;;;;;;5053270;28;20542;-65
2022/01/12 14:14:18;;;;;;;57.22;6.80;;;;;;;;;;5062865;28;20088;-65
2022/01/12 14:16:44;;;;;;;74.60;9.80;;;;;;;;;;5059288;28;20512;-65
2022/01/12 14:19:14;;;;;;;69.18;7.90;;;;;;;;;;5059651;28;20128;-65
2022/01/12 14:21:52;;;;;;;64.93;7.37;;;;;;;;;;5061628;28;20135;-66
2022/01/12 14:24:20;;;;;;;64.72;8.00;;;;;;;;;;5051872;28;20132;-66
2022/01/12 14:26:46;;;;;;;69.65;7.88;;;;;;;;;;5049656;28;20045;-65
2022/01/12 14:29:13;;;;;;;55.00;6.25;;;;;;;;;;5042968;28;20991;-65
2022/01/12 14:31:40;;;;;;;74.68;7.60;;;;;;;;;;5043770;28;20152;-66
2022/01/12 14:34:06;;;;;;;56.17;6.75;;;;;;;;;;5042718;28;20059;-65
2022/01/12 14:36:33;;;;;;;87.50;8.38;;;;;;;;;;5044130;28;20707;-65
2022/01/12 14:38:59;;;;;;;54.05;8.07;;;;;;;;;;5045480;28;20044;-65
2022/01/12 14:41:26;;;;;;;73.78;8.52;;;;;;;;;;5045436;28;20228;-66
2022/01/12 14:43:52;;;;;;;70.35;7.13;;;;;;;;;;5044332;28;20115;-65
2022/01/12 14:46:19;;;;;;;75.20;8.27;;;;;;;;;;5042240;28;20049;-65
2022/01/12 14:48:47;;;;;;;67.35;7.65;;;;;;;;;;5044642;28;20609;-65
2022/01/12 14:51:13;;;;;;;76.95;8.38;;;;;;;;;;5044355;28;20056;-65
2022/01/12 14:53:43;;;;;;;83.10;9.15;;;;;;;;;;5046540;28;20076;-65
2022/01/12 14:56:09;;;;;;;61.58;7.15;;;;;;;;;;5047507;28;20041;-65
2022/01/12 14:58:36;;;;;;;65.40;6.20;;;;;;;;;;5050166;28;20904;-65
2022/01/12 15:01:09;;;;;;;59.78;8.45;;;;;;;;;;5046020;28;20052;-65
2022/01/12 15:03:36;;;;;;;51.17;6.75;;;;;;;;;;5048557;28;20049;-65
2022/01/12 15:06:04;;;;;;;53.28;6.00;;;;;;;;;;5048862;28;20807;-65
2022/01/12 15:08:31;;;;;;;61.00;6.82;;;;;;;;;;5043621;28;20168;-65
2022/01/12 15:10:58;;;;;;;55.00;7.47;;;;;;;;;;5049647;28;20072;-65
2022/01/12 15:13:41;;;;;;;61.45;7.32;;;;;;;;;;5059520;28;20051;-65
2022/01/12 15:16:13;;;;;;;57.08;7.13;;;;;;;;;;5061898;28;20053;-65
2022/01/12 15:18:40;;;;;;;55.80;6.57;;;;;;;;;;5055564;28;20045;-66
2022/01/12 15:21:06;;;;;;;62.70;6.75;;;;;;;;;;5064070;28;20375;-65
2022/01/12 15:23:33;;;;;;;60.15;6.05;;;;;;;;;;5058673;28;20131;-65
2022/01/12 15:26:00;;;;;;;60.45;6.15;;;;;;;;;;5058951;28;20056;-65
2022/01/12 15:28:26;;;;;;;61.20;6.93;;;;;;;;;;5059232;28;20469;-65
2022/01/12 15:30:57;;;;;;;62.08;6.82;;;;;;;;;;5059892;28;20088;-65
2022/01/12 15:33:23;;;;;;;55.33;6.25;;;;;;;;;;5053615;28;20048;-65
2022/01/12 15:35:50;;;;;;;46.85;5.40;;;;;;;;;;5054540;28;20139;-65
2022/01/12 15:38:28;;;;;;;50.72;7.20;;;;;;;;;;5063406;28;20055;-65
2022/01/12 15:40:55;;;;;;;51.80;7.07;;;;;;;;;;5057621;28;20095;-65
2022/01/12 15:43:21;;;;;;;43.83;6.65;;;;;;;;;;5051629;28;20306;-66
2022/01/12 15:45:48;;;;;;;58.33;6.85;;;;;;;;;;5056902;28;20048;-65
2022/01/12 15:48:15;;;;;;;57.42;6.32;;;;;;;;;;5044608;28;20052;-65
2022/01/12 15:50:42;;;;;;;57.20;6.50;;;;;;;;;;5042929;28;20048;-65
2022/01/12 15:53:08;;;;;;;60.33;7.80;;;;;;;;;;5054451;28;20135;-66
2022/01/12 15:55:35;;;;;;;58.22;6.57;;;;;;;;;;5061270;28;20211;-65
2022/01/12 15:58:01;;;;;;;50.80;6.10;;;;;;;;;;5056312;28;20048;-66
2022/01/12 16:00:28;;;;;;;60.58;7.43;;;;;;;;;;5056828;28;20069;-65
2022/01/12 16:02:55;;;;;;;34.75;4.75;;;;;;;;;;5056021;28;20055;-65
2022/01/12 16:05:22;;;;;;;45.57;5.60;;;;;;;;;;5050776;28;20084;-65
2022/01/12 16:07:49;;;;;;;66.13;6.00;;;;;;;;;;5041794;28;20102;-66
2022/01/12 16:10:25;;;;;;;70.55;7.88;;;;;;;;;;5042885;28;20135;-65
2022/01/12 16:12:51;;;;;;;64.45;7.05;;;;;;;;;;5044270;28;20132;-65